Pagina principale
METAR-TAF:

METAR-TAF

Aeroporti :

Wiener Neustadt, Austria

latitudine: 47-50-36N, longitudine: 016-15-29E, altezza: 272 m

Osservazione

Il bollettino è stato emesso 32 minuti fa, alle 14:00 UTC
Vento 11 kt da ovest
Temperature
Pressione
Visibilità 10 km o più
Nubi sparse ad un'altezza di 5000 ft

METAR: LOAN 061400Z 28011KT 9999 SCT050

Ora: 15:32 (14:32 UTC)

Previsione

Il bollettino è stato emesso 3 ore e 7 minuti fa, alle 11:25 UTC
Previsione valida dal 06 alle 12 UTC al 06 alle 21 UTC
Vento 7 kt da ovest
Visibilità 10 km o più
Nubi sparse ad un'altezza di 4000 ft
Temporaneamente
dal 06 alle 12 UTC al 06 alle 15 UTC
Vento 15 kt da ovest/nord-ovest con raffiche fino a 25 kt

TAF: LOAN 061125Z 0612/0621 27007KT 9999 SCT040 TEMPO 0612/0615 29015G25KT

Osservazioni e previsioni meteorologiche di più di 4000 aeroporti (messaggi METAR e TAF).

Le stazioni disponibili sono rappresentate dai dischi gialli e rossi sulla carta.

Puntare il mouse per vedere il nome della stazione.

Clicca sopra per visualizzare le osservazioni e previsioni meteorologiche.

Per cambiare la mappa : fare clic sui pulsanti verdi con una croce nera per ingrandire, il pulsante verde con un trattino per diminuire, o sulla freccia verde per le mappe adiacenti.


METAR-TAF: